createdAt,value
2022-11-27T00:00:22.770Z,5.35
2022-11-27T00:01:22.340Z,4.95
2022-11-27T00:02:09.215Z,5.75
2022-11-27T00:03:07.859Z,5.43
2022-11-27T00:03:57.760Z,4.95
2022-11-27T00:06:45.956Z,5.28
2022-11-27T00:07:53.193Z,4.73
2022-11-27T00:08:38.485Z,5.15
2022-11-27T00:10:47.644Z,4.88
2022-11-27T00:11:46.127Z,5.57
2022-11-27T00:12:47.731Z,5.13
2022-11-27T00:14:48.423Z,5.05
2022-11-27T00:16:05.362Z,5.47
2022-11-27T00:17:08.902Z,5.32
2022-11-27T00:18:16.542Z,5.07
2022-11-27T00:19:12.700Z,4.40
2022-11-27T00:19:56.027Z,5.75
2022-11-27T00:21:02.630Z,5.90
2022-11-27T00:22:10.387Z,5.00
2022-11-27T00:23:23.980Z,4.78
2022-11-27T00:24:57.333Z,5.78
2022-11-27T00:25:57.204Z,5.30
2022-11-27T00:26:57.425Z,4.55
2022-11-27T00:28:03.839Z,3.90
2022-11-27T00:29:20.446Z,4.70
2022-11-27T00:30:27.645Z,4.32
2022-11-27T00:32:30.568Z,6.05
2022-11-27T00:33:33.780Z,5.50
2022-11-27T00:35:44.309Z,5.78
2022-11-27T00:38:12.178Z,4.95
2022-11-27T00:40:42.563Z,4.50
2022-11-27T00:42:16.880Z,5.20
2022-11-27T00:42:41.662Z,6.18
2022-11-27T00:44:00.540Z,5.32
2022-11-27T00:48:56.291Z,5.53
2022-11-27T00:52:10.018Z,5.90
2022-11-27T00:57:16.420Z,4.65
2022-11-27T01:00:31.194Z,5.68
2022-11-27T01:01:20.592Z,5.32
2022-11-27T01:02:06.256Z,4.75
2022-11-27T01:03:27.494Z,4.90
2022-11-27T01:04:24.557Z,4.88
2022-11-27T01:05:54.644Z,5.38
2022-11-27T01:07:03.741Z,4.55
2022-11-27T01:08:09.711Z,4.70
2022-11-27T01:09:48.844Z,5.20
2022-11-27T01:11:05.432Z,5.00
2022-11-27T01:12:16.312Z,4.93
2022-11-27T01:13:37.658Z,5.75
2022-11-27T01:14:34.902Z,5.00
2022-11-27T01:15:23.129Z,5.93
2022-11-27T01:16:22.317Z,5.15
2022-11-27T01:17:24.292Z,5.20
2022-11-27T01:18:12.793Z,5.63
2022-11-27T01:19:03.049Z,5.60
2022-11-27T01:19:54.035Z,5.70
2022-11-27T01:21:04.307Z,5.32
2022-11-27T01:22:04.992Z,4.80
2022-11-27T01:22:58.808Z,5.32
2022-11-27T01:24:06.167Z,4.72
2022-11-27T01:27:05.806Z,5.22
2022-11-27T01:28:04.198Z,5.18
2022-11-27T01:29:13.361Z,5.00
2022-11-27T01:30:25.996Z,5.90
2022-11-27T01:31:39.982Z,4.78
2022-11-27T01:33:06.196Z,5.20
2022-11-27T01:33:59.544Z,4.00
2022-11-27T01:35:27.381Z,5.05
2022-11-27T01:36:11.419Z,4.80
2022-11-27T01:36:54.949Z,4.80
2022-11-27T01:37:54.456Z,5.13
2022-11-27T01:38:43.896Z,5.65
2022-11-27T01:39:33.382Z,5.15
2022-11-27T01:40:47.992Z,4.90
2022-11-27T01:41:52.816Z,4.95
2022-11-27T01:42:46.225Z,5.25
2022-11-27T01:44:08.635Z,5.22
2022-11-27T01:45:20.414Z,4.60
2022-11-27T01:46:41.781Z,4.90
2022-11-27T01:48:00.910Z,5.07
2022-11-27T01:49:46.899Z,5.00
2022-11-27T01:50:56.386Z,5.60
2022-11-27T01:52:17.756Z,6.18
2022-11-27T01:54:40.228Z,4.47
2022-11-27T01:55:44.476Z,4.82
2022-11-27T01:56:36.052Z,5.10
2022-11-27T01:57:57.348Z,6.07
2022-11-27T01:58:43.937Z,4.53
2022-11-27T01:59:48.608Z,4.68
2022-11-27T02:01:32.861Z,5.70
2022-11-27T02:02:22.214Z,6.25
2022-11-27T02:03:09.663Z,5.28
2022-11-27T02:05:44.015Z,5.10
2022-11-27T02:08:25.826Z,5.57
2022-11-27T02:09:50.438Z,5.00
2022-11-27T02:12:50.392Z,5.03
2022-11-27T02:14:16.449Z,5.70
2022-11-27T02:15:32.831Z,5.28
2022-11-27T02:17:05.539Z,5.22
2022-11-27T02:18:40.152Z,5.20
2022-11-27T02:20:04.624Z,4.68
2022-11-27T02:21:32.008Z,4.93
2022-11-27T02:23:20.799Z,4.90
2022-11-27T02:26:20.741Z,4.80
2022-11-27T02:27:42.637Z,5.20
2022-11-27T02:29:48.153Z,5.38
2022-11-27T02:30:49.601Z,5.95
2022-11-27T02:32:20.753Z,5.10
2022-11-27T02:33:58.771Z,4.60
2022-11-27T02:34:56.826Z,4.80
2022-11-27T02:36:32.645Z,5.85
2022-11-27T02:37:47.429Z,5.40
2022-11-27T02:38:59.001Z,5.70
2022-11-27T02:39:51.958Z,5.20
2022-11-27T02:41:25.395Z,4.68
2022-11-27T02:43:43.058Z,4.57
2022-11-27T02:45:02.791Z,5.65
2022-11-27T02:47:41.870Z,4.90
2022-11-27T02:52:27.585Z,4.75
2022-11-27T02:53:46.845Z,5.13
2022-11-27T02:56:34.513Z,4.53
2022-11-27T02:57:57.133Z,5.05
2022-11-27T03:00:50.818Z,5.35
2022-11-27T03:01:52.807Z,5.28
2022-11-27T03:02:53.451Z,5.33
2022-11-27T03:04:07.045Z,4.40
2022-11-27T03:05:09.606Z,4.55
2022-11-27T03:06:16.833Z,5.53
2022-11-27T03:08:06.453Z,6.35
2022-11-27T03:09:44.788Z,5.05
2022-11-27T03:24:14.324Z,5.82
2022-11-27T03:25:27.470Z,5.72
2022-11-27T03:26:18.068Z,5.25
2022-11-27T03:26:50.587Z,5.38
2022-11-27T03:27:42.842Z,5.30
2022-11-27T03:28:17.140Z,6.28
2022-11-27T03:29:04.724Z,5.85
2022-11-27T03:29:52.883Z,5.97
2022-11-27T03:30:30.434Z,5.43
2022-11-27T03:31:40.248Z,5.50
2022-11-27T03:32:31.980Z,4.72
2022-11-27T03:33:20.860Z,5.93
2022-11-27T03:36:42.006Z,5.75
2022-11-27T03:37:54.682Z,4.63
2022-11-27T03:39:06.253Z,5.18
2022-11-27T03:40:41.980Z,6.43
2022-11-27T03:42:22.703Z,5.63
2022-11-27T03:45:16.976Z,5.32
2022-11-27T03:46:48.905Z,5.38
2022-11-27T03:48:04.275Z,5.30
2022-11-27T03:49:17.918Z,5.65
2022-11-27T03:50:41.342Z,5.65
2022-11-27T03:51:57.972Z,5.07
2022-11-27T03:53:18.226Z,6.05
2022-11-27T03:54:22.229Z,5.40
2022-11-27T03:57:01.206Z,5.70
2022-11-27T03:58:11.216Z,4.75
2022-11-27T03:59:30.810Z,5.00
2022-11-27T04:00:21.134Z,4.88
2022-11-27T04:01:22.672Z,5.53
2022-11-27T04:03:11.025Z,4.68
2022-11-27T04:04:07.211Z,4.13
2022-11-27T04:07:58.007Z,5.38
2022-11-27T04:08:38.839Z,5.95
2022-11-27T04:10:46.695Z,4.80
2022-11-27T04:11:38.758Z,5.10
2022-11-27T04:12:56.671Z,5.63
2022-11-27T04:15:01.007Z,4.47
2022-11-27T04:15:59.736Z,5.28
2022-11-27T04:17:57.277Z,4.80
2022-11-27T04:18:59.428Z,5.40
2022-11-27T04:21:30.307Z,5.72
2022-11-27T04:22:20.468Z,4.90
2022-11-27T04:23:17.625Z,4.70
2022-11-27T04:24:11.568Z,5.85
2022-11-27T04:27:04.331Z,5.47
2022-11-27T04:29:18.421Z,5.68
2022-11-27T04:30:22.238Z,5.20
2022-11-27T04:32:10.887Z,4.32
2022-11-27T04:32:45.542Z,4.43
2022-11-27T04:33:45.121Z,5.00
2022-11-27T04:34:48.979Z,4.97
2022-11-27T04:35:56.166Z,5.17
2022-11-27T04:37:11.213Z,5.05
2022-11-27T04:37:56.662Z,4.70
2022-11-27T04:40:03.170Z,5.45
2022-11-27T04:41:03.710Z,4.68
2022-11-27T04:41:54.965Z,4.50
2022-11-27T04:43:09.565Z,5.30
2022-11-27T04:44:09.861Z,5.93
2022-11-27T04:45:11.965Z,4.82
2022-11-27T04:46:04.404Z,5.00
2022-11-27T04:46:45.042Z,4.75
2022-11-27T04:48:00.747Z,5.35
2022-11-27T04:49:21.055Z,4.50
2022-11-27T04:50:15.043Z,5.00
2022-11-27T04:51:24.809Z,4.60
2022-11-27T04:52:17.051Z,4.53
2022-11-27T04:54:21.348Z,4.10
2022-11-27T04:55:47.953Z,3.70
2022-11-27T04:56:39.787Z,5.10
2022-11-27T04:57:21.339Z,5.35
2022-11-27T04:59:23.729Z,4.72
2022-11-27T05:00:45.960Z,4.50
2022-11-27T05:01:40.211Z,4.13
2022-11-27T05:03:40.184Z,4.93
2022-11-27T05:04:27.421Z,4.68
2022-11-27T05:05:15.526Z,4.43
2022-11-27T05:06:21.753Z,4.40
2022-11-27T05:07:09.970Z,5.00
2022-11-27T05:07:56.342Z,4.97
2022-11-27T05:08:55.655Z,5.65
2022-11-27T05:10:55.512Z,4.53
2022-11-27T05:12:39.288Z,4.13
2022-11-27T05:13:49.433Z,4.65
2022-11-27T05:14:53.576Z,4.00
2022-11-27T05:17:42.208Z,4.80
2022-11-27T05:18:40.595Z,4.43
2022-11-27T05:19:45.515Z,3.83
2022-11-27T05:20:41.547Z,4.10
2022-11-27T05:23:01.146Z,4.55
2022-11-27T05:25:16.407Z,4.22
2022-11-27T05:27:40.597Z,4.80
2022-11-27T05:30:04.914Z,4.65
2022-11-27T05:31:48.628Z,4.88
2022-11-27T05:33:04.769Z,3.85
2022-11-27T05:34:04.148Z,4.80
2022-11-27T05:35:27.066Z,4.38
2022-11-27T05:36:36.135Z,4.30
2022-11-27T05:39:23.324Z,3.85
2022-11-27T05:40:09.643Z,4.03
2022-11-27T05:41:14.506Z,4.30
2022-11-27T05:43:09.038Z,3.60
2022-11-27T05:43:56.469Z,4.22
2022-11-27T05:44:56.702Z,3.88
2022-11-27T05:45:56.822Z,3.90
2022-11-27T05:46:45.487Z,4.03
2022-11-27T05:48:00.265Z,3.83
2022-11-27T05:50:31.534Z,3.75
2022-11-27T05:51:30.678Z,3.97
2022-11-27T05:54:17.674Z,4.57
2022-11-27T05:54:49.567Z,3.90
2022-11-27T05:55:31.455Z,4.50
2022-11-27T05:56:59.148Z,4.03
2022-11-27T05:57:36.901Z,3.55
2022-11-27T05:58:12.600Z,4.05
2022-11-27T05:58:48.365Z,4.15
2022-11-27T05:59:22.637Z,4.05
2022-11-27T06:00:45.983Z,4.47
2022-11-27T06:01:53.706Z,3.17
2022-11-27T06:02:58.048Z,3.75
2022-11-27T06:05:31.662Z,4.57
2022-11-27T06:06:27.361Z,3.90
2022-11-27T06:07:26.229Z,4.10
2022-11-27T06:09:53.064Z,3.92
2022-11-27T06:11:48.062Z,4.00
2022-11-27T06:12:52.175Z,3.30
2022-11-27T06:14:05.727Z,3.20
2022-11-27T06:18:20.184Z,3.17
2022-11-27T06:19:40.661Z,3.77
2022-11-27T06:21:25.765Z,3.65
2022-11-27T06:23:04.235Z,4.35
2022-11-27T06:25:36.294Z,3.60
2022-11-27T06:30:04.732Z,4.28
2022-11-27T06:31:31.470Z,4.97
2022-11-27T06:34:26.192Z,4.00
2022-11-27T06:35:06.407Z,3.80
2022-11-27T06:36:33.255Z,4.93
2022-11-27T06:37:30.590Z,4.57
2022-11-27T06:39:58.656Z,3.97
2022-11-27T06:41:07.385Z,3.85
2022-11-27T06:42:27.978Z,4.30
2022-11-27T06:43:31.771Z,3.30
2022-11-27T06:44:14.545Z,3.47
2022-11-27T06:44:52.075Z,4.80
2022-11-27T06:45:25.189Z,4.32
2022-11-27T06:46:03.456Z,4.15
2022-11-27T06:46:39.191Z,4.10
2022-11-27T06:47:12.382Z,4.05
2022-11-27T06:47:43.783Z,5.18
2022-11-27T06:48:21.324Z,4.28
2022-11-27T06:49:03.140Z,4.40
2022-11-27T06:50:19.948Z,4.55
2022-11-27T06:52:58.641Z,3.47
2022-11-27T06:55:26.929Z,3.25
2022-11-27T06:56:39.680Z,3.15
2022-11-27T06:57:47.200Z,3.10
2022-11-27T06:59:00.395Z,2.65
2022-11-27T07:00:06.972Z,3.17
2022-11-27T07:01:01.010Z,4.38
2022-11-27T07:05:40.396Z,3.53
2022-11-27T07:06:47.187Z,3.75
2022-11-27T07:07:43.771Z,3.88
2022-11-27T07:09:03.568Z,4.10
2022-11-27T07:11:21.942Z,4.47
2022-11-27T07:12:48.043Z,3.58
2022-11-27T07:16:00.920Z,2.90
2022-11-27T07:22:14.274Z,3.80
2022-11-27T07:23:22.354Z,3.42
2022-11-27T07:24:16.327Z,3.10
2022-11-27T07:25:33.131Z,3.33
2022-11-27T07:27:03.090Z,3.92
2022-11-27T07:31:08.701Z,3.70
2022-11-27T07:33:58.080Z,4.38
2022-11-27T07:36:59.588Z,3.30
2022-11-27T07:37:58.008Z,3.65
2022-11-27T07:38:58.287Z,4.13
2022-11-27T07:42:37.070Z,4.07
2022-11-27T07:44:03.271Z,3.83
2022-11-27T07:44:41.808Z,3.08
2022-11-27T07:45:57.334Z,4.68
2022-11-27T07:46:55.909Z,4.50
2022-11-27T07:50:26.613Z,3.63
2022-11-27T07:51:29.224Z,4.20
2022-11-27T07:53:42.352Z,4.18
2022-11-27T07:54:44.719Z,3.97
2022-11-27T07:55:42.569Z,4.70
2022-11-27T07:56:50.514Z,3.97
2022-11-27T08:00:30.263Z,4.70
2022-11-27T08:01:27.849Z,4.32
2022-11-27T08:02:07.740Z,3.97
2022-11-27T08:04:20.193Z,3.80
2022-11-27T08:05:28.099Z,3.43
2022-11-27T08:06:22.250Z,4.05
2022-11-27T08:07:10.647Z,4.22
2022-11-27T08:08:05.256Z,4.72
2022-11-27T08:10:58.245Z,3.28
2022-11-27T08:11:48.789Z,3.88
2022-11-27T08:12:39.595Z,4.50
2022-11-27T08:13:27.335Z,4.45
2022-11-27T08:14:27.907Z,4.43
2022-11-27T08:15:19.230Z,3.65
2022-11-27T08:16:38.468Z,3.50
2022-11-27T08:17:29.388Z,3.90
2022-11-27T08:18:15.898Z,4.07
2022-11-27T08:19:10.112Z,3.97
2022-11-27T08:20:06.767Z,4.50
2022-11-27T08:21:23.930Z,4.68
2022-11-27T08:22:12.302Z,4.93
2022-11-27T08:23:16.843Z,3.58
2022-11-27T08:24:00.767Z,3.67
2022-11-27T08:24:47.107Z,4.28
2022-11-27T08:25:48.342Z,4.45
2022-11-27T08:28:09.253Z,4.28
2022-11-27T08:28:56.751Z,4.40
2022-11-27T08:29:52.587Z,4.35
2022-11-27T08:30:31.624Z,4.72
2022-11-27T08:31:26.341Z,5.20
2022-11-27T08:32:34.085Z,4.65
2022-11-27T08:33:48.816Z,4.70
2022-11-27T08:34:53.990Z,3.85
2022-11-27T08:36:07.315Z,3.72
2022-11-27T08:37:07.004Z,4.30
2022-11-27T08:38:02.442Z,3.80
2022-11-27T08:38:49.529Z,4.03
2022-11-27T08:39:46.079Z,4.28
2022-11-27T08:40:42.876Z,4.00
2022-11-27T08:43:01.121Z,3.55
2022-11-27T08:43:47.515Z,3.83
2022-11-27T08:44:47.107Z,4.47
2022-11-27T08:45:27.163Z,4.90
2022-11-27T08:47:05.401Z,4.68
2022-11-27T08:47:42.693Z,4.55
2022-11-27T08:48:25.737Z,4.53
2022-11-27T08:49:18.125Z,4.75
2022-11-27T08:50:01.484Z,4.80
2022-11-27T08:50:50.569Z,5.22
2022-11-27T08:51:39.246Z,4.28
2022-11-27T08:52:32.464Z,4.63
2022-11-27T08:53:32.741Z,4.47
2022-11-27T08:54:12.368Z,5.63
2022-11-27T08:55:02.297Z,5.00
2022-11-27T08:56:21.385Z,5.30
2022-11-27T08:57:23.793Z,4.60
2022-11-27T08:59:25.856Z,5.55
2022-11-27T09:00:26.370Z,4.88
2022-11-27T09:01:19.348Z,5.15
2022-11-27T09:02:10.651Z,5.27
2022-11-27T09:02:53.324Z,4.68
2022-11-27T09:03:41.474Z,4.97
2022-11-27T09:04:16.205Z,5.32
2022-11-27T09:05:04.956Z,5.20
2022-11-27T09:06:19.067Z,5.57
2022-11-27T09:08:22.443Z,5.65
2022-11-27T09:09:09.094Z,5.00
2022-11-27T09:10:02.190Z,5.53
2022-11-27T09:10:55.075Z,5.43
2022-11-27T09:11:34.304Z,5.45
2022-11-27T09:12:21.754Z,5.63
2022-11-27T09:13:21.999Z,5.68
2022-11-27T09:15:19.711Z,5.18
2022-11-27T09:16:22.638Z,4.93
2022-11-27T09:16:56.481Z,5.45
2022-11-27T09:19:23.165Z,5.80
2022-11-27T09:20:52.060Z,6.05
2022-11-27T09:22:18.856Z,6.57
2022-11-27T09:23:10.136Z,5.63
2022-11-27T09:23:47.478Z,5.45
2022-11-27T09:24:18.947Z,6.40
2022-11-27T09:24:50.384Z,5.70
2022-11-27T09:25:21.858Z,6.38
2022-11-27T09:26:00.721Z,6.60
2022-11-27T09:27:04.917Z,6.78
2022-11-27T09:27:54.818Z,5.90
2022-11-27T09:28:59.467Z,7.05
2022-11-27T09:30:11.709Z,6.47
2022-11-27T09:33:03.379Z,6.78
2022-11-27T09:34:24.080Z,5.70
2022-11-27T09:35:12.672Z,6.57
2022-11-27T09:37:39.345Z,5.80
2022-11-27T09:37:44.127Z,6.15
2022-11-27T09:39:15.144Z,5.05
2022-11-27T09:40:07.758Z,6.47
2022-11-27T09:41:29.283Z,6.00
2022-11-27T10:20:07.489Z,6.13
2022-11-27T10:21:12.787Z,4.50
2022-11-27T10:24:34.963Z,5.65
2022-11-27T10:30:24.163Z,4.35
2022-11-27T10:33:16.142Z,6.18
2022-11-27T10:34:11.305Z,6.53
2022-11-27T10:38:38.856Z,5.28
2022-11-27T10:52:57.926Z,6.30
2022-11-27T11:01:40.642Z,5.43
2022-11-27T11:05:32.808Z,5.22
2022-11-27T11:07:25.514Z,5.70
2022-11-27T11:12:23.844Z,6.63
2022-11-27T11:16:46.488Z,5.95
2022-11-27T11:17:38.271Z,5.43
2022-11-27T11:18:37.939Z,5.78
2022-11-27T11:20:48.405Z,6.63
2022-11-27T11:23:46.409Z,6.28
2022-11-27T11:25:22.328Z,6.23
2022-11-27T11:26:57.133Z,5.82
2022-11-27T11:27:47.210Z,5.55
2022-11-27T11:30:19.735Z,6.72
2022-11-27T11:31:37.718Z,6.25
2022-11-27T11:33:27.546Z,5.38
2022-11-27T11:36:19.865Z,6.20
2022-11-27T11:37:54.599Z,7.30
2022-11-27T11:38:44.187Z,6.13
2022-11-27T11:39:57.376Z,5.88
2022-11-27T11:41:58.041Z,5.82
2022-11-27T11:43:44.238Z,6.30
2022-11-27T11:45:33.249Z,5.57
2022-11-27T11:46:46.627Z,5.78
2022-11-27T11:48:38.292Z,5.10
2022-11-27T11:50:04.969Z,5.60
2022-11-27T11:51:18.873Z,5.38
2022-11-27T11:54:53.334Z,5.38
2022-11-27T11:57:10.999Z,5.93
2022-11-27T11:58:16.695Z,5.90
2022-11-27T11:59:34.513Z,5.75
2022-11-27T12:00:53.046Z,5.30
2022-11-27T12:03:58.497Z,5.85
2022-11-27T12:05:17.104Z,5.60
2022-11-27T12:06:33.829Z,5.90
2022-11-27T12:09:41.366Z,5.97
2022-11-27T12:11:09.655Z,5.35
2022-11-27T12:14:13.196Z,6.40
2022-11-27T12:15:11.319Z,5.97
2022-11-27T12:16:40.267Z,6.50
2022-11-27T12:17:38.841Z,6.93
2022-11-27T12:19:47.050Z,7.50
2022-11-27T12:20:40.389Z,6.80
2022-11-27T12:21:21.625Z,6.85
2022-11-27T12:22:13.563Z,8.05
2022-11-27T12:23:28.523Z,7.55
2022-11-27T12:24:33.376Z,8.15
2022-11-27T12:25:46.418Z,7.15
2022-11-27T12:26:24.811Z,7.28
2022-11-27T12:27:05.158Z,7.15
2022-11-27T12:30:23.241Z,7.20
2022-11-27T12:31:45.078Z,6.45
2022-11-27T12:33:15.473Z,6.40
2022-11-27T12:35:06.771Z,6.75
2022-11-27T12:36:05.456Z,6.65
2022-11-27T12:37:34.655Z,7.43
2022-11-27T12:40:24.987Z,7.35
2022-11-27T12:41:16.696Z,6.25
2022-11-27T12:42:10.356Z,6.43
2022-11-27T12:44:42.503Z,7.57
2022-11-27T12:45:53.436Z,8.95
2022-11-27T12:50:05.638Z,7.05
2022-11-27T12:56:24.099Z,8.02
2022-11-27T13:11:51.236Z,8.18
2022-11-27T13:14:59.673Z,7.10
2022-11-27T13:16:18.654Z,6.47
2022-11-27T13:17:20.180Z,6.82
2022-11-27T13:18:33.790Z,7.03
2022-11-27T13:19:40.043Z,8.13
2022-11-27T13:21:01.901Z,7.93
2022-11-27T13:21:43.072Z,6.97
2022-11-27T13:23:11.090Z,7.93
2022-11-27T13:24:22.168Z,7.10
2022-11-27T13:25:06.753Z,6.80
2022-11-27T13:26:36.834Z,7.35
2022-11-27T13:27:30.440Z,6.75
2022-11-27T13:28:18.708Z,7.32
2022-11-27T13:29:08.744Z,8.63
2022-11-27T13:30:56.313Z,8.38
2022-11-27T13:32:06.042Z,6.82
2022-11-27T13:33:10.963Z,7.50
2022-11-27T13:34:18.334Z,7.55
2022-11-27T13:35:41.825Z,8.77
2022-11-27T13:36:35.763Z,8.38
2022-11-27T13:37:28.727Z,8.65
2022-11-27T13:38:25.231Z,7.00
2022-11-27T13:39:00.091Z,7.38
2022-11-27T13:39:37.027Z,8.03
2022-11-27T13:40:48.713Z,8.25
2022-11-27T13:41:38.151Z,7.28
2022-11-27T13:42:14.942Z,7.20
2022-11-27T13:42:53.526Z,7.68
2022-11-27T13:43:52.096Z,6.78
2022-11-27T13:44:26.897Z,6.60
2022-11-27T13:45:03.244Z,6.28
2022-11-27T13:45:40.882Z,7.82
2022-11-27T13:46:28.368Z,7.00
2022-11-27T13:47:20.815Z,6.97
2022-11-27T13:48:03.382Z,7.25
2022-11-27T13:48:44.378Z,7.80
2022-11-27T13:49:29.415Z,7.10
2022-11-27T13:50:28.183Z,7.40
2022-11-27T13:51:08.236Z,7.25
2022-11-27T13:51:49.512Z,7.38
2022-11-27T13:53:39.870Z,7.50
2022-11-27T13:54:18.751Z,8.02
2022-11-27T13:55:01.896Z,8.03
2022-11-27T13:55:39.251Z,7.95
2022-11-27T13:56:10.724Z,9.15
2022-11-27T13:56:43.417Z,7.55
2022-11-27T13:57:17.366Z,8.35
2022-11-27T13:57:57.145Z,8.15
2022-11-27T13:58:37.059Z,7.63
2022-11-27T13:59:24.518Z,8.65
2022-11-27T14:00:03.558Z,8.77
2022-11-27T14:00:56.652Z,8.02
2022-11-27T14:01:37.053Z,7.50
2022-11-27T14:02:11.178Z,7.68
2022-11-27T14:02:52.992Z,7.28
2022-11-27T14:03:32.676Z,7.60
2022-11-27T14:04:14.676Z,7.10
2022-11-27T14:04:55.782Z,6.82
2022-11-27T14:05:41.500Z,7.95
2022-11-27T14:06:25.303Z,7.30
2022-11-27T14:07:09.666Z,7.32
2022-11-27T14:07:47.638Z,6.65
2022-11-27T14:08:32.257Z,7.23
2022-11-27T14:09:12.884Z,7.28
2022-11-27T14:09:51.248Z,7.60
2022-11-27T14:10:26.497Z,7.97
2022-11-27T14:11:02.458Z,7.90
2022-11-27T14:11:47.855Z,7.90
2022-11-27T14:12:41.011Z,7.80
2022-11-27T14:13:12.952Z,6.90
2022-11-27T14:13:50.822Z,6.60
2022-11-27T14:14:28.387Z,7.22
2022-11-27T14:16:05.035Z,7.03
2022-11-27T14:16:37.111Z,7.50
2022-11-27T14:17:26.682Z,7.55
2022-11-27T14:18:19.703Z,6.97
2022-11-27T14:18:53.282Z,7.40
2022-11-27T14:19:34.002Z,6.85
2022-11-27T14:20:28.912Z,7.63
2022-11-27T14:21:03.491Z,6.60
2022-11-27T14:21:41.870Z,7.82
2022-11-27T14:22:30.812Z,6.87
2022-11-27T14:23:17.531Z,7.55
2022-11-27T14:23:51.256Z,6.65
2022-11-27T14:24:43.411Z,7.72
2022-11-27T14:25:43.161Z,8.40
2022-11-27T14:26:15.454Z,7.65
2022-11-27T14:26:47.039Z,6.88
2022-11-27T14:27:21.178Z,7.75
2022-11-27T14:28:26.462Z,7.32
2022-11-27T14:29:04.573Z,7.00
2022-11-27T14:29:40.758Z,7.47
2022-11-27T14:30:36.912Z,7.38
2022-11-27T14:31:35.785Z,7.05
2022-11-27T14:32:12.728Z,8.48
2022-11-27T14:32:44.530Z,8.02
2022-11-27T14:33:23.306Z,7.82
2022-11-27T14:34:50.136Z,7.65
2022-11-27T14:35:27.442Z,8.25
2022-11-27T14:36:04.842Z,7.82
2022-11-27T14:36:36.385Z,7.27
2022-11-27T14:37:20.546Z,8.13
2022-11-27T14:37:52.725Z,7.70
2022-11-27T14:38:34.926Z,8.52
2022-11-27T14:39:25.634Z,7.82
2022-11-27T14:39:57.108Z,7.45
2022-11-27T14:40:28.791Z,8.93
2022-11-27T14:41:14.927Z,10.38
2022-11-27T14:41:56.707Z,9.57
2022-11-27T14:42:35.201Z,9.73
2022-11-27T14:43:14.120Z,9.40
2022-11-27T14:43:45.757Z,9.88
2022-11-27T14:44:19.164Z,9.57
2022-11-27T14:45:02.610Z,9.45
2022-11-27T14:45:36.229Z,8.85
2022-11-27T14:46:15.462Z,9.48
2022-11-27T14:46:49.795Z,8.30
2022-11-27T14:47:22.865Z,8.63
2022-11-27T14:47:54.843Z,9.50
2022-11-27T14:48:42.573Z,9.73
2022-11-27T14:49:22.001Z,8.20
2022-11-27T14:49:59.179Z,8.38
2022-11-27T14:50:30.656Z,9.00
2022-11-27T14:51:05.878Z,8.75
2022-11-27T14:51:40.533Z,8.65
2022-11-27T14:52:16.616Z,9.63
2022-11-27T14:52:56.716Z,8.77
2022-11-27T14:53:28.872Z,8.68
2022-11-27T14:54:03.657Z,8.80
2022-11-27T14:54:40.317Z,8.15
2022-11-27T14:55:19.581Z,8.97
2022-11-27T14:55:57.356Z,8.48
2022-11-27T14:56:37.077Z,8.32
2022-11-27T14:57:19.625Z,8.90
2022-11-27T14:57:51.723Z,8.50
2022-11-27T14:58:26.862Z,8.57
2022-11-27T14:59:00.409Z,7.82
2022-11-27T14:59:32.268Z,8.70
2022-11-27T15:00:16.392Z,9.30
2022-11-27T15:01:02.253Z,9.13
2022-11-27T15:01:36.277Z,8.57
2022-11-27T15:02:15.637Z,8.65
2022-11-27T15:02:49.639Z,8.82
2022-11-27T15:03:23.453Z,9.23
2022-11-27T15:04:01.250Z,7.88
2022-11-27T15:04:38.391Z,9.02
2022-11-27T15:05:26.259Z,9.02
2022-11-27T15:06:34.625Z,9.40
2022-11-27T15:07:18.641Z,7.38
2022-11-27T15:07:53.167Z,7.63
2022-11-27T15:08:32.691Z,7.93
2022-11-27T15:09:30.157Z,8.15
2022-11-27T15:10:02.202Z,7.97
2022-11-27T15:10:48.363Z,8.55
2022-11-27T15:11:53.943Z,8.27
2022-11-27T15:12:23.757Z,7.65
2022-11-27T15:12:56.106Z,7.55
2022-11-27T15:13:35.127Z,8.02
2022-11-27T15:14:06.535Z,7.72
2022-11-27T15:14:38.337Z,7.45
2022-11-27T15:15:20.995Z,9.20
2022-11-27T15:16:05.485Z,7.53
2022-11-27T15:16:43.338Z,8.00
2022-11-27T15:17:28.208Z,8.23
2022-11-27T15:18:03.457Z,8.57
2022-11-27T15:18:38.936Z,9.43
2022-11-27T15:19:34.867Z,10.13
2022-11-27T15:20:16.058Z,9.55
2022-11-27T15:20:47.889Z,9.43
2022-11-27T15:21:25.639Z,9.23
2022-11-27T15:21:58.083Z,10.00
2022-11-27T15:22:29.945Z,9.18
2022-11-27T15:23:02.194Z,8.88
2022-11-27T15:23:34.448Z,10.43
2022-11-27T15:24:06.097Z,9.07
2022-11-27T15:24:39.664Z,8.98
2022-11-27T15:25:34.249Z,8.50
2022-11-27T15:26:16.007Z,8.90
2022-11-27T15:26:49.863Z,7.45
2022-11-27T15:27:22.000Z,7.78
2022-11-27T15:27:53.723Z,8.30
2022-11-27T15:28:24.971Z,7.93
2022-11-27T15:28:59.224Z,7.78
2022-11-27T15:29:36.837Z,7.70
2022-11-27T15:30:08.297Z,8.90
2022-11-27T15:30:45.817Z,10.55
2022-11-27T15:31:26.788Z,10.45
2022-11-27T15:31:58.350Z,10.07
2022-11-27T15:32:45.674Z,11.55
2022-11-27T15:33:31.930Z,10.48
2022-11-27T15:34:18.336Z,8.80
2022-11-27T15:34:50.407Z,8.55
2022-11-27T15:35:26.252Z,9.77
2022-11-27T15:36:20.571Z,8.82
2022-11-27T15:36:58.865Z,7.93
2022-11-27T15:37:34.532Z,7.30
2022-11-27T15:38:10.839Z,7.72
2022-11-27T15:38:56.372Z,8.60
2022-11-27T15:39:52.191Z,8.32
2022-11-27T15:40:36.863Z,8.50
2022-11-27T15:41:28.818Z,8.53
2022-11-27T15:42:02.210Z,7.43
2022-11-27T15:42:36.846Z,7.68
2022-11-27T15:43:16.133Z,8.48
2022-11-27T15:43:47.607Z,8.35
2022-11-27T15:44:19.296Z,8.63
2022-11-27T15:44:57.982Z,7.93
2022-11-27T15:45:35.094Z,7.93
2022-11-27T15:46:09.142Z,7.80
2022-11-27T15:46:43.275Z,7.60
2022-11-27T15:47:36.505Z,8.60
2022-11-27T15:48:17.607Z,7.28
2022-11-27T15:48:49.371Z,8.00
2022-11-27T15:49:22.968Z,7.72
2022-11-27T15:49:55.538Z,7.50
2022-11-27T15:50:31.092Z,7.07
2022-11-27T15:51:12.880Z,8.32
2022-11-27T15:51:44.615Z,7.80
2022-11-27T15:52:17.885Z,7.45
2022-11-27T15:52:49.331Z,6.47
2022-11-27T15:53:24.967Z,6.90
2022-11-27T15:54:03.589Z,7.00
2022-11-27T15:54:37.360Z,7.75
2022-11-27T15:55:18.555Z,6.85
2022-11-27T15:55:54.438Z,7.07
2022-11-27T15:56:26.309Z,6.45
2022-11-27T15:57:18.709Z,7.43
2022-11-27T15:58:03.578Z,7.40
2022-11-27T15:58:40.044Z,7.10
2022-11-27T15:59:11.627Z,7.10
2022-11-27T15:59:43.196Z,6.60
2022-11-27T16:00:15.458Z,7.40
2022-11-27T16:01:15.561Z,7.45
2022-11-27T16:02:06.787Z,7.68
2022-11-27T16:03:24.205Z,6.80
2022-11-27T16:04:11.826Z,8.35
2022-11-27T16:05:35.055Z,7.90
2022-11-27T16:06:06.618Z,9.00
2022-11-27T16:06:57.773Z,11.45
2022-11-27T16:07:44.092Z,10.65
2022-11-27T16:09:31.276Z,10.23
2022-11-27T16:10:30.652Z,8.95
2022-11-27T16:11:18.381Z,8.60
2022-11-27T16:11:57.901Z,8.40
2022-11-27T16:12:34.047Z,8.30
2022-11-27T16:13:46.821Z,8.57
2022-11-27T16:14:41.999Z,8.68
2022-11-27T16:15:33.093Z,8.23
2022-11-27T16:16:25.810Z,8.23
2022-11-27T16:17:06.304Z,9.50
2022-11-27T16:18:47.078Z,7.85
2022-11-27T16:19:38.372Z,7.50
2022-11-27T16:20:36.258Z,7.20
2022-11-27T16:22:17.318Z,6.47
2022-11-27T16:23:33.068Z,6.57
2022-11-27T16:25:17.453Z,6.25
2022-11-27T16:26:05.461Z,7.13
2022-11-27T16:26:40.389Z,6.88
2022-11-27T16:27:23.685Z,7.28
2022-11-27T16:28:05.787Z,8.38
2022-11-27T16:28:57.380Z,8.07
2022-11-27T16:30:00.570Z,7.47
2022-11-27T16:30:40.707Z,8.27
2022-11-27T16:31:51.270Z,8.10
2022-11-27T16:32:27.240Z,8.13
2022-11-27T16:33:33.665Z,7.15
2022-11-27T16:34:28.130Z,7.03
2022-11-27T16:34:59.877Z,6.88
2022-11-27T16:35:34.229Z,7.43
2022-11-27T16:36:12.830Z,7.63
2022-11-27T16:36:52.325Z,6.55
2022-11-27T16:37:25.825Z,7.03
2022-11-27T16:37:59.672Z,8.13
2022-11-27T16:39:00.308Z,6.68
2022-11-27T16:39:39.288Z,8.48
2022-11-27T16:40:30.747Z,7.15
2022-11-27T16:41:37.253Z,7.37
2022-11-27T16:42:43.199Z,6.38
2022-11-27T16:43:29.067Z,6.82
2022-11-27T16:44:27.665Z,6.78
2022-11-27T16:45:38.347Z,7.80
2022-11-27T16:46:40.582Z,7.40
2022-11-27T16:48:08.661Z,7.20
2022-11-27T16:50:14.211Z,5.97
2022-11-27T16:51:24.583Z,6.85
2022-11-27T16:52:57.452Z,6.88
2022-11-27T16:54:47.762Z,7.03
2022-11-27T16:55:34.545Z,7.03
2022-11-27T16:56:37.889Z,6.90
2022-11-27T16:57:51.637Z,7.38
2022-11-27T16:58:45.297Z,6.60
2022-11-27T17:01:07.711Z,5.55
2022-11-27T17:02:04.466Z,6.40
2022-11-27T17:03:04.152Z,6.22
2022-11-27T17:04:20.709Z,6.60
2022-11-27T17:05:57.450Z,6.13
2022-11-27T17:06:40.901Z,6.50
2022-11-27T17:07:30.561Z,7.28
2022-11-27T17:08:12.834Z,6.82
2022-11-27T17:08:52.178Z,6.78
2022-11-27T17:09:32.585Z,7.03
2022-11-27T17:10:12.961Z,6.95
2022-11-27T17:10:45.547Z,7.43
2022-11-27T17:11:21.228Z,6.78
2022-11-27T17:12:02.079Z,6.97
2022-11-27T17:12:39.795Z,7.50
2022-11-27T17:14:33.261Z,6.95
2022-11-27T17:16:59.646Z,6.70
2022-11-27T17:18:24.214Z,6.95
2022-11-27T17:21:32.643Z,7.03
2022-11-27T17:22:46.520Z,8.82
2022-11-27T17:26:16.867Z,7.53
2022-11-27T17:27:38.749Z,7.63
2022-11-27T17:29:20.482Z,9.43